createdAt,value
2022-12-17T00:01:09.968Z,34.73
2022-12-17T00:03:57.807Z,34.60
2022-12-17T00:06:45.767Z,36.07
2022-12-17T00:09:33.483Z,35.77
2022-12-17T00:12:21.151Z,34.90
2022-12-17T00:15:08.599Z,36.57
2022-12-17T00:17:56.082Z,35.43
2022-12-17T00:20:44.469Z,33.83
2022-12-17T00:23:34.685Z,35.30
2022-12-17T00:26:22.921Z,36.07
2022-12-17T00:29:10.857Z,33.43
2022-12-17T00:31:58.465Z,34.47
2022-12-17T00:34:45.247Z,33.77
2022-12-17T00:37:33.021Z,36.20
2022-12-17T00:40:20.848Z,32.87
2022-12-17T00:43:18.695Z,35.07
2022-12-17T00:46:09.873Z,34.47
2022-12-17T00:48:58.431Z,34.50
2022-12-17T00:51:51.911Z,33.37
2022-12-17T00:54:39.652Z,32.83
2022-12-17T00:57:27.222Z,32.10
2022-12-17T01:00:14.989Z,35.73
2022-12-17T01:03:02.866Z,33.63
2022-12-17T01:05:50.502Z,38.63
2022-12-17T01:08:37.952Z,35.97
2022-12-17T01:11:26.949Z,35.90
2022-12-17T01:14:14.783Z,31.75
2022-12-17T01:17:02.558Z,33.30
2022-12-17T01:19:50.385Z,31.87
2022-12-17T01:22:38.201Z,35.10
2022-12-17T01:25:27.985Z,35.33
2022-12-17T01:28:15.546Z,34.17
2022-12-17T01:31:03.341Z,32.93
2022-12-17T01:33:53.875Z,35.27
2022-12-17T01:36:41.304Z,35.47
2022-12-17T01:39:28.970Z,34.87
2022-12-17T01:42:25.330Z,33.87
2022-12-17T01:45:13.881Z,34.67
2022-12-17T01:48:08.490Z,35.47
2022-12-17T01:51:00.334Z,34.93
2022-12-17T01:53:53.003Z,35.40
2022-12-17T01:59:28.832Z,32.73
2022-12-17T02:02:17.119Z,33.07
2022-12-17T02:05:05.017Z,33.30
2022-12-17T02:08:12.103Z,33.70
2022-12-17T02:11:06.096Z,31.93
2022-12-17T02:13:58.449Z,32.30
2022-12-17T02:16:53.211Z,31.77
2022-12-17T02:19:49.730Z,31.43
2022-12-17T02:22:44.872Z,31.73
2022-12-17T02:25:41.660Z,29.17
2022-12-17T02:28:29.862Z,30.43
2022-12-17T02:31:19.190Z,30.33
2022-12-17T02:34:07.986Z,29.80
2022-12-17T02:36:55.645Z,28.87
2022-12-17T02:39:43.215Z,29.37
2022-12-17T02:42:30.968Z,29.50
2022-12-17T02:45:20.427Z,29.73
2022-12-17T02:48:11.112Z,30.03
2022-12-17T02:50:58.852Z,30.40
2022-12-17T02:53:48.751Z,29.17
2022-12-17T02:56:36.712Z,29.47
2022-12-17T02:59:24.405Z,29.03
2022-12-17T03:02:17.536Z,29.70
2022-12-17T03:05:27.675Z,28.37
2022-12-17T03:08:13.192Z,28.60
2022-12-17T03:11:01.611Z,28.37
2022-12-17T03:13:49.529Z,30.50
2022-12-17T03:16:38.426Z,30.10
2022-12-17T03:19:28.018Z,29.27
2022-12-17T03:22:15.878Z,30.73
2022-12-17T03:25:03.367Z,29.93
2022-12-17T03:27:50.908Z,28.87
2022-12-17T03:30:39.261Z,28.70
2022-12-17T03:33:29.491Z,28.20
2022-12-17T03:36:16.917Z,29.03
2022-12-17T03:39:04.672Z,30.95
2022-12-17T03:41:52.142Z,31.83
2022-12-17T03:44:40.003Z,32.53
2022-12-17T03:47:27.365Z,30.00
2022-12-17T03:50:17.867Z,29.60
2022-12-17T03:53:05.500Z,30.03
2022-12-17T03:55:53.724Z,30.83
2022-12-17T03:58:41.672Z,29.60
2022-12-17T04:01:29.948Z,28.57
2022-12-17T04:04:17.963Z,29.07
2022-12-17T04:07:06.962Z,30.70
2022-12-17T04:09:54.247Z,28.83
2022-12-17T04:12:41.724Z,28.20
2022-12-17T04:15:29.864Z,29.33
2022-12-17T04:18:17.525Z,29.63
2022-12-17T04:21:05.987Z,28.10
2022-12-17T04:24:05.288Z,29.27
2022-12-17T04:26:52.825Z,32.93
2022-12-17T04:29:44.663Z,32.40
2022-12-17T04:32:35.566Z,31.87
2022-12-17T04:35:24.713Z,29.17
2022-12-17T04:38:12.250Z,29.27
2022-12-17T04:40:59.736Z,28.80
2022-12-17T04:43:47.460Z,29.53
2022-12-17T04:46:35.008Z,27.77
2022-12-17T04:49:22.947Z,29.10
2022-12-17T04:52:10.471Z,28.90
2022-12-17T04:54:58.185Z,29.80
2022-12-17T04:57:48.090Z,28.97
2022-12-17T05:00:35.996Z,29.57
2022-12-17T05:03:26.102Z,28.93
2022-12-17T05:06:14.268Z,28.43
2022-12-17T05:09:02.560Z,29.00
2022-12-17T05:11:50.659Z,27.93
2022-12-17T05:14:38.183Z,28.57
2022-12-17T05:17:26.220Z,29.43
2022-12-17T05:20:14.007Z,31.60
2022-12-17T05:23:01.619Z,30.43
2022-12-17T05:25:49.100Z,31.23
2022-12-17T05:28:36.645Z,31.93
2022-12-17T05:31:24.874Z,29.93
2022-12-17T05:34:12.235Z,30.30
2022-12-17T05:36:59.764Z,29.43
2022-12-17T05:39:47.460Z,29.90
2022-12-17T05:42:34.941Z,28.13
2022-12-17T05:45:23.736Z,31.27
2022-12-17T05:48:16.460Z,29.17
2022-12-17T05:53:54.434Z,29.20
2022-12-17T05:56:42.027Z,28.67
2022-12-17T05:59:29.521Z,29.70
2022-12-17T06:02:17.117Z,28.93
2022-12-17T06:05:05.131Z,26.57
2022-12-17T06:07:52.463Z,28.20
2022-12-17T06:10:39.928Z,27.57
2022-12-17T06:13:27.292Z,27.43
2022-12-17T06:16:14.994Z,27.40
2022-12-17T06:19:02.807Z,27.13
2022-12-17T06:21:51.279Z,28.30
2022-12-17T06:24:42.762Z,29.00
2022-12-17T06:27:34.456Z,30.00
2022-12-17T06:30:25.121Z,30.07
2022-12-17T06:33:22.681Z,29.80
2022-12-17T06:36:18.071Z,31.47
2022-12-17T06:39:09.290Z,35.37
2022-12-17T06:42:02.302Z,32.90
2022-12-17T06:44:52.058Z,31.13
2022-12-17T06:47:39.576Z,31.40
2022-12-17T06:50:28.013Z,32.40
2022-12-17T06:53:20.352Z,32.60
2022-12-17T06:56:16.660Z,31.87
2022-12-17T06:59:04.119Z,32.80
2022-12-17T07:01:51.793Z,36.17
2022-12-17T07:04:40.819Z,38.33
2022-12-17T07:07:28.265Z,38.10
2022-12-17T07:10:15.821Z,38.23
2022-12-17T07:13:04.751Z,37.93
2022-12-17T07:15:52.991Z,35.63
2022-12-17T07:18:40.519Z,37.27
2022-12-17T07:21:28.160Z,36.07
2022-12-17T07:24:15.807Z,32.50
2022-12-17T07:27:03.988Z,32.17
2022-12-17T07:29:52.893Z,33.13
2022-12-17T07:32:40.967Z,32.93
2022-12-17T07:35:31.802Z,31.53
2022-12-17T07:38:20.863Z,31.17
2022-12-17T07:41:16.677Z,31.63
2022-12-17T07:44:05.055Z,32.27
2022-12-17T07:46:52.904Z,32.50
2022-12-17T07:49:40.606Z,34.63
2022-12-17T07:52:28.041Z,32.53
2022-12-17T07:55:18.406Z,35.53
2022-12-17T07:58:15.413Z,35.83
2022-12-17T08:01:04.972Z,35.90
2022-12-17T08:03:53.083Z,39.60
2022-12-17T08:06:40.648Z,40.43
2022-12-17T08:09:29.983Z,40.10
2022-12-17T08:12:17.139Z,38.90
2022-12-17T08:15:04.572Z,37.53
2022-12-17T08:17:52.570Z,37.23
2022-12-17T08:20:40.549Z,37.27
2022-12-17T08:23:28.725Z,33.93
2022-12-17T08:26:17.525Z,31.60
2022-12-17T08:29:05.307Z,31.63
2022-12-17T08:31:53.918Z,29.30
2022-12-17T08:34:41.398Z,28.03
2022-12-17T08:37:29.814Z,26.43
2022-12-17T08:40:18.001Z,22.57
2022-12-17T08:43:05.830Z,21.20
2022-12-17T08:45:55.881Z,20.17
2022-12-17T08:48:43.801Z,16.70
2022-12-17T08:51:32.088Z,13.67
2022-12-17T08:54:20.245Z,11.60
2022-12-17T08:57:07.946Z,11.40
2022-12-17T08:59:55.421Z,10.63
2022-12-17T09:02:44.133Z,10.37
2022-12-17T09:05:42.444Z,10.40
2022-12-17T09:08:31.014Z,9.67
2022-12-17T09:11:19.152Z,9.90
2022-12-17T09:14:06.678Z,8.58
2022-12-17T09:16:54.667Z,7.67
2022-12-17T09:19:42.052Z,7.28
2022-12-17T09:22:29.935Z,8.50
2022-12-17T09:25:17.360Z,8.45
2022-12-17T09:28:05.913Z,8.55
2022-12-17T09:30:53.728Z,7.40
2022-12-17T09:33:41.761Z,8.05
2022-12-17T09:36:32.768Z,8.05
2022-12-17T09:39:20.519Z,6.92
2022-12-17T09:42:13.021Z,7.33
2022-12-17T09:47:53.565Z,6.10
2022-12-17T09:50:41.250Z,5.28
2022-12-17T09:53:35.860Z,5.22
2022-12-17T09:56:24.584Z,4.10
2022-12-17T09:59:12.183Z,5.75
2022-12-17T10:02:01.105Z,5.85
2022-12-17T10:04:54.068Z,6.62
2022-12-17T10:07:43.002Z,7.50
2022-12-17T10:10:34.468Z,5.45
2022-12-17T10:13:25.887Z,6.58
2022-12-17T10:16:13.726Z,9.33
2022-12-17T10:19:02.025Z,10.55
2022-12-17T10:21:50.295Z,9.53
2022-12-17T10:24:39.912Z,8.45
2022-12-17T10:27:29.249Z,7.75
2022-12-17T10:30:17.599Z,8.45
2022-12-17T10:33:13.036Z,8.73
2022-12-17T10:36:00.198Z,9.58
2022-12-17T10:38:49.423Z,17.27
2022-12-17T10:41:43.028Z,15.80
2022-12-17T10:44:45.813Z,15.40
2022-12-17T10:47:35.892Z,13.83
2022-12-17T10:50:30.887Z,12.53
2022-12-17T10:53:20.310Z,9.53
2022-12-17T10:56:10.948Z,9.17
2022-12-17T10:59:02.976Z,8.25
2022-12-17T11:02:01.223Z,8.68
2022-12-17T11:04:49.759Z,9.30
2022-12-17T11:07:38.613Z,7.92
2022-12-17T11:10:32.885Z,8.90
2022-12-17T11:13:23.237Z,8.00
2022-12-17T11:16:14.978Z,8.98
2022-12-17T11:21:54.575Z,16.42
2022-12-17T11:24:46.343Z,14.90
2022-12-17T11:27:39.960Z,13.27
2022-12-17T11:30:30.945Z,11.43
2022-12-17T11:33:29.049Z,12.93
2022-12-17T11:36:32.575Z,12.47
2022-12-17T11:39:28.023Z,13.70
2022-12-17T11:42:17.922Z,11.05
2022-12-17T11:45:09.594Z,9.13
2022-12-17T11:48:02.240Z,9.20
2022-12-17T11:50:57.529Z,10.28
2022-12-17T11:53:55.093Z,18.50
2022-12-17T11:56:45.321Z,13.95
2022-12-17T11:59:37.947Z,10.13
2022-12-17T12:02:32.304Z,9.00
2022-12-17T12:05:29.128Z,7.12
2022-12-17T12:08:21.122Z,6.67
2022-12-17T12:11:11.880Z,7.92
2022-12-17T12:14:02.941Z,7.20
2022-12-17T12:16:59.037Z,6.87
2022-12-17T12:19:53.130Z,6.92
2022-12-17T12:22:46.602Z,6.70
2022-12-17T12:25:46.569Z,8.43
2022-12-17T12:28:39.996Z,8.63
2022-12-17T12:31:31.128Z,10.08
2022-12-17T12:34:21.815Z,9.08
2022-12-17T12:37:09.753Z,9.18
2022-12-17T12:39:59.030Z,9.65
2022-12-17T12:42:51.035Z,11.05
2022-12-17T12:45:50.418Z,11.85
2022-12-17T12:48:44.137Z,9.58
2022-12-17T12:51:34.612Z,8.75
2022-12-17T12:54:36.741Z,8.68
2022-12-17T12:57:41.021Z,11.50
2022-12-17T13:00:41.642Z,15.03
2022-12-17T13:03:39.558Z,17.32
2022-12-17T13:06:11.423Z,19.48
2022-12-17T13:08:41.083Z,21.02
2022-12-17T13:11:25.943Z,24.45
2022-12-17T13:13:57.821Z,26.65
2022-12-17T13:16:32.725Z,27.37
2022-12-17T13:19:03.364Z,25.90
2022-12-17T13:21:32.638Z,25.55
2022-12-17T13:24:10.854Z,26.27
2022-12-17T13:26:45.027Z,27.60
2022-12-17T13:29:28.443Z,27.22
2022-12-17T13:32:07.408Z,32.30
2022-12-17T13:34:42.556Z,27.00
2022-12-17T13:37:15.953Z,25.53
2022-12-17T13:39:50.161Z,25.62
2022-12-17T13:42:24.812Z,27.13
2022-12-17T13:44:56.800Z,28.95
2022-12-17T13:47:28.125Z,28.27
2022-12-17T13:50:32.068Z,28.60
2022-12-17T13:52:47.391Z,28.83
2022-12-17T13:55:21.201Z,28.17
2022-12-17T13:57:52.077Z,29.50
2022-12-17T14:00:23.725Z,31.07
2022-12-17T14:02:54.833Z,31.73
2022-12-17T14:05:26.485Z,30.65
2022-12-17T14:07:57.537Z,29.40
2022-12-17T14:10:28.852Z,29.27
2022-12-17T14:13:06.400Z,28.62
2022-12-17T14:15:37.253Z,29.63
2022-12-17T14:18:11.360Z,29.48
2022-12-17T14:20:40.795Z,28.42
2022-12-17T14:23:13.499Z,29.15
2022-12-17T14:25:44.150Z,29.27
2022-12-17T14:28:23.440Z,29.70
2022-12-17T14:31:26.043Z,29.07
2022-12-17T14:34:01.442Z,29.35
2022-12-17T14:36:31.278Z,28.80
2022-12-17T14:39:01.603Z,28.75
2022-12-17T14:41:56.212Z,30.32
2022-12-17T14:44:27.314Z,35.45
2022-12-17T14:47:07.596Z,31.35
2022-12-17T14:49:38.484Z,29.95
2022-12-17T14:52:14.782Z,28.07
2022-12-17T14:54:46.202Z,27.45
2022-12-17T14:57:20.667Z,27.75
2022-12-17T14:59:52.061Z,28.90
2022-12-17T15:02:23.549Z,30.57
2022-12-17T15:04:56.338Z,29.35
2022-12-17T15:07:26.991Z,31.25
2022-12-17T15:09:56.948Z,31.60
2022-12-17T15:12:31.848Z,30.80
2022-12-17T15:15:01.181Z,30.37
2022-12-17T15:17:30.434Z,30.88
2022-12-17T15:20:01.290Z,31.33
2022-12-17T15:22:30.592Z,32.23
2022-12-17T15:24:59.957Z,30.45
2022-12-17T15:27:30.403Z,30.82
2022-12-17T15:29:59.897Z,30.57
2022-12-17T15:32:30.289Z,31.73
2022-12-17T15:34:59.576Z,30.60
2022-12-17T15:37:28.925Z,30.72
2022-12-17T15:40:00.358Z,30.25
2022-12-17T15:42:47.887Z,30.23
2022-12-17T15:45:17.351Z,28.73
2022-12-17T15:47:46.519Z,26.35
2022-12-17T15:50:15.896Z,27.58
2022-12-17T15:52:45.193Z,25.07
2022-12-17T15:55:15.272Z,26.05
2022-12-17T15:57:44.633Z,26.93
2022-12-17T16:00:15.109Z,26.90
2022-12-17T16:02:44.656Z,26.95
2022-12-17T16:05:14.162Z,28.80
2022-12-17T16:07:43.764Z,28.05
2022-12-17T16:10:13.662Z,28.73
2022-12-17T16:12:43.433Z,26.10
2022-12-17T16:15:15.179Z,29.02
2022-12-17T16:17:46.490Z,27.80
2022-12-17T16:20:16.007Z,27.93
2022-12-17T16:22:47.295Z,26.70
2022-12-17T16:25:19.230Z,25.93
2022-12-17T16:27:50.230Z,30.17
2022-12-17T16:30:21.343Z,28.33
2022-12-17T16:32:53.406Z,28.03
2022-12-17T16:35:24.898Z,27.65
2022-12-17T16:37:57.617Z,30.50
2022-12-17T16:40:29.127Z,30.33
2022-12-17T16:43:00.253Z,29.20
2022-12-17T16:45:31.176Z,28.62
2022-12-17T16:48:00.956Z,27.15
2022-12-17T16:50:30.301Z,32.57
2022-12-17T16:52:59.517Z,32.38
2022-12-17T16:55:28.854Z,33.73
2022-12-17T16:57:58.426Z,32.70
2022-12-17T17:00:27.641Z,31.70
2022-12-17T17:02:58.497Z,29.20
2022-12-17T17:05:31.126Z,30.87
2022-12-17T17:08:00.979Z,30.47
2022-12-17T17:10:30.298Z,30.68
2022-12-17T17:12:59.576Z,32.40
2022-12-17T17:15:28.805Z,30.15
2022-12-17T17:18:03.859Z,31.10
2022-12-17T17:20:33.099Z,30.35
2022-12-17T17:23:03.250Z,29.33
2022-12-17T17:25:54.213Z,29.93
2022-12-17T17:28:23.465Z,29.63
2022-12-17T17:30:58.323Z,30.70
2022-12-17T17:33:29.723Z,29.07
2022-12-17T17:36:04.173Z,27.57
2022-12-17T17:38:34.690Z,31.07
2022-12-17T17:41:05.239Z,33.78
2022-12-17T17:43:35.224Z,33.20
2022-12-17T17:46:05.804Z,33.83
2022-12-17T17:48:36.467Z,37.47
2022-12-17T17:51:07.850Z,37.03
2022-12-17T17:53:37.579Z,38.20
2022-12-17T17:56:14.708Z,34.98
2022-12-17T17:58:45.305Z,32.93
2022-12-17T18:01:15.704Z,32.80
2022-12-17T18:03:45.956Z,32.40
2022-12-17T18:06:15.326Z,27.77
2022-12-17T18:08:45.404Z,26.62
2022-12-17T18:11:19.006Z,26.23
2022-12-17T18:13:57.060Z,26.00
2022-12-17T18:16:28.555Z,25.73
2022-12-17T18:18:58.782Z,25.92
2022-12-17T18:21:29.302Z,25.15
2022-12-17T18:24:00.698Z,24.70
2022-12-17T18:26:32.378Z,23.50
2022-12-17T18:29:02.669Z,24.73
2022-12-17T18:31:33.092Z,24.87
2022-12-17T18:34:03.243Z,24.95
2022-12-17T18:36:37.566Z,23.45
2022-12-17T18:39:08.771Z,23.30
2022-12-17T18:41:56.257Z,23.13
2022-12-17T18:44:26.406Z,22.33
2022-12-17T18:46:57.423Z,21.23
2022-12-17T18:49:28.181Z,21.10
2022-12-17T18:51:58.311Z,20.97
2022-12-17T18:54:29.492Z,21.73
2022-12-17T18:57:01.611Z,23.05
2022-12-17T18:59:35.241Z,27.03
2022-12-17T19:02:04.605Z,23.87
2022-12-17T19:04:35.165Z,27.50
2022-12-17T19:07:04.999Z,26.03
2022-12-17T19:09:35.103Z,26.20
2022-12-17T19:12:05.674Z,27.47
2022-12-17T19:14:36.591Z,27.32
2022-12-17T19:17:06.537Z,29.67
2022-12-17T19:19:35.840Z,27.77
2022-12-17T19:22:05.706Z,28.57
2022-12-17T19:24:38.230Z,27.53
2022-12-17T19:27:07.459Z,27.53
2022-12-17T19:29:36.705Z,26.33
2022-12-17T19:32:06.083Z,28.05
2022-12-17T19:34:35.445Z,27.03
2022-12-17T19:37:04.971Z,27.13
2022-12-17T19:39:34.210Z,28.77
2022-12-17T19:42:03.475Z,27.93
2022-12-17T19:44:33.713Z,28.70
2022-12-17T19:47:09.024Z,28.80
2022-12-17T19:49:38.334Z,28.45
2022-12-17T19:52:07.501Z,29.27
2022-12-17T19:54:38.227Z,29.77
2022-12-17T19:57:07.451Z,29.70
2022-12-17T19:59:36.760Z,28.57
2022-12-17T20:02:06.311Z,28.50
2022-12-17T20:04:36.157Z,28.75
2022-12-17T20:07:06.184Z,28.77
2022-12-17T20:09:35.404Z,30.70
2022-12-17T20:12:06.654Z,30.30
2022-12-17T20:14:37.167Z,28.77
2022-12-17T20:17:06.681Z,29.50
2022-12-17T20:19:36.772Z,30.60
2022-12-17T20:22:06.480Z,30.33
2022-12-17T20:24:36.695Z,26.25
2022-12-17T20:27:06.508Z,26.33
2022-12-17T20:29:36.016Z,27.10
2022-12-17T20:32:05.589Z,26.30
2022-12-17T20:34:35.033Z,25.73
2022-12-17T20:37:04.435Z,28.47
2022-12-17T20:39:35.473Z,28.40
2022-12-17T20:42:06.153Z,26.70
2022-12-17T20:44:37.088Z,27.42
2022-12-17T20:47:06.399Z,29.45
2022-12-17T20:49:35.863Z,28.50
2022-12-17T20:52:05.160Z,28.03
2022-12-17T20:54:34.889Z,28.23
2022-12-17T20:57:04.126Z,28.77
2022-12-17T20:59:33.434Z,28.77
2022-12-17T21:02:03.736Z,27.57
2022-12-17T21:04:33.291Z,26.33
2022-12-17T21:07:02.726Z,26.37
2022-12-17T21:09:32.249Z,27.13
2022-12-17T21:12:01.640Z,24.77
2022-12-17T21:14:35.517Z,24.70
2022-12-17T21:17:05.667Z,25.03
2022-12-17T21:19:35.084Z,23.75
2022-12-17T21:22:04.418Z,21.33
2022-12-17T21:24:33.844Z,22.02
2022-12-17T21:27:03.362Z,21.43
2022-12-17T21:29:32.742Z,19.93
2022-12-17T21:32:02.661Z,19.03
2022-12-17T21:34:32.073Z,20.20
2022-12-17T21:37:02.181Z,18.90
2022-12-17T21:39:31.507Z,17.30
2022-12-17T21:42:19.026Z,18.80
2022-12-17T21:44:48.477Z,17.10
2022-12-17T21:47:17.882Z,17.93
2022-12-17T21:49:47.096Z,16.27
2022-12-17T21:52:16.303Z,15.30
2022-12-17T21:54:46.303Z,14.55
2022-12-17T21:57:15.499Z,13.85
2022-12-17T21:59:45.698Z,13.40
2022-12-17T22:02:15.113Z,12.80
2022-12-17T22:04:44.537Z,13.85
2022-12-17T22:07:15.931Z,12.30
2022-12-17T22:10:27.752Z,12.73
2022-12-17T22:12:58.246Z,13.27
2022-12-17T22:15:28.695Z,11.25
2022-12-17T22:18:01.695Z,13.15
2022-12-17T22:20:30.845Z,12.10
2022-12-17T22:23:00.168Z,11.85
2022-12-17T22:25:29.564Z,13.15
2022-12-17T22:27:58.751Z,13.45
2022-12-17T22:30:46.365Z,15.77
2022-12-17T22:33:37.380Z,13.95
2022-12-17T22:38:29.882Z,14.75
2022-12-17T22:44:03.224Z,14.75
2022-12-17T22:44:35.708Z,15.40
2022-12-17T22:44:54.547Z,13.60
2022-12-17T22:47:24.611Z,14.13
2022-12-17T22:49:53.851Z,13.40
2022-12-17T22:52:23.676Z,13.20
2022-12-17T22:54:53.207Z,13.10
2022-12-17T22:57:36.688Z,12.80
2022-12-17T23:00:10.796Z,13.70
2022-12-17T23:02:40.119Z,14.10
2022-12-17T23:05:09.620Z,12.55
2022-12-17T23:07:38.895Z,12.20
2022-12-17T23:10:08.775Z,13.50
2022-12-17T23:12:53.699Z,13.40
2022-12-17T23:15:25.292Z,12.75
2022-12-17T23:17:55.853Z,13.30
2022-12-17T23:20:25.768Z,12.70
2022-12-17T23:22:55.184Z,13.10
2022-12-17T23:25:24.521Z,13.45
2022-12-17T23:27:54.420Z,15.10
2022-12-17T23:30:23.580Z,14.20
2022-12-17T23:32:52.929Z,13.00
2022-12-17T23:35:22.153Z,13.35
2022-12-17T23:37:52.228Z,13.23
2022-12-17T23:40:22.358Z,13.90
2022-12-17T23:42:51.972Z,14.50
2022-12-17T23:45:21.360Z,15.00
2022-12-17T23:47:50.820Z,15.20
2022-12-17T23:50:20.236Z,15.20
2022-12-17T23:52:49.823Z,15.20
2022-12-17T23:55:19.184Z,16.43
2022-12-17T23:57:48.405Z,15.50
